Garner, Iowa
Current Conditions -  °F | °C
As of 12:30 AM on Wednesday 26 Nov 2014 (Local Time) from KFXY Reporting Station
Scattered Clouds Scattered Clouds  
Wind Chill: 17°   Ceiling: Unl
Heat Index: 27°   Visibility: 10mi
Dew Point: 19°   Wind: 10mph
Humidity: 74%   Direction: 110°ESE
Pressure: 29.95"   Gusts: NA
Location:  43.1°N, 93.6°W
Report Text: KFXY 260630Z AUTO 11009KT 10SM SCT039 SCT050 M03/M07 A2995 RMK AO2
Loading
Personal Weather Stations






























Interactive Weather Map New forecast layout! Learn more

10-Day Weather Forecast

Advertisements
Track Severe Weather on mobile